Time;durP1;ratioP1;P1;durP2;ratioP2;P2;SDS_P1;SDS_P2;PMS_P1;PMS_P2;Temp;Humidity;BMP_temperature;BMP_pressure;BME280_temperature;BME280_humidity;BME280_pressure;Samples;Min_cycle;Max_cycle;Signal;HPM_P1;HPM_P2
2021/05/05 00:00:18;;;;;;;5.82;3.47;;;;;;;;;;5034831;28;20048;-78
2021/05/05 00:02:44;;;;;;;5.72;3.53;;;;;;;;;;5039769;28;20040;-78
2021/05/05 00:05:10;;;;;;;5.13;3.05;;;;;;;;;;5054718;28;20414;-78
2021/05/05 00:07:36;;;;;;;5.25;3.20;;;;;;;;;;5038567;28;20039;-78
2021/05/05 00:10:02;;;;;;;5.40;2.67;;;;;;;;;;5038905;28;20055;-78
2021/05/05 00:12:27;;;;;;;5.15;3.10;;;;;;;;;;5038640;28;20032;-78
2021/05/05 00:14:53;;;;;;;4.68;2.60;;;;;;;;;;5039228;28;20041;-78
2021/05/05 00:17:18;;;;;;;4.82;2.88;;;;;;;;;;5018730;28;20043;-79
2021/05/05 00:19:43;;;;;;;5.05;2.95;;;;;;;;;;5019483;28;20067;-79
2021/05/05 00:22:09;;;;;;;5.63;2.72;;;;;;;;;;5027425;28;20131;-78
2021/05/05 00:24:34;;;;;;;4.45;2.53;;;;;;;;;;5035238;28;20119;-78
2021/05/05 00:27:00;;;;;;;4.68;2.80;;;;;;;;;;5025093;28;20112;-78
2021/05/05 00:29:26;;;;;;;4.65;2.65;;;;;;;;;;5052005;28;20395;-78
2021/05/05 00:31:51;;;;;;;4.90;2.00;;;;;;;;;;5068659;28;20417;-78
2021/05/05 00:34:17;;;;;;;4.85;2.00;;;;;;;;;;5051621;28;20033;-78
2021/05/05 00:36:42;;;;;;;4.75;2.03;;;;;;;;;;5018727;28;20040;-78
2021/05/05 00:39:07;;;;;;;5.10;2.40;;;;;;;;;;5051529;28;20143;-78
2021/05/05 00:41:33;;;;;;;3.78;2.00;;;;;;;;;;5067882;28;20939;-78
2021/05/05 00:43:59;;;;;;;4.40;2.00;;;;;;;;;;5051328;28;20037;-78
2021/05/05 00:46:24;;;;;;;4.53;1.92;;;;;;;;;;5068189;28;20037;-78
2021/05/05 00:48:49;;;;;;;4.55;2.25;;;;;;;;;;5028817;28;20045;-78
2021/05/05 00:51:15;;;;;;;2.85;1.77;;;;;;;;;;5034897;28;20056;-78
2021/05/05 00:53:41;;;;;;;6.18;2.05;;;;;;;;;;5034122;28;20029;-78
2021/05/05 00:56:06;;;;;;;2.70;1.38;;;;;;;;;;5034659;28;20045;-78
2021/05/05 00:58:32;;;;;;;3.90;1.77;;;;;;;;;;5001937;28;20473;-79
2021/05/05 01:00:58;;;;;;;4.32;1.88;;;;;;;;;;5018399;28;20029;-79
2021/05/05 01:03:23;;;;;;;4.43;2.10;;;;;;;;;;5018011;28;20045;-79
2021/05/05 01:05:49;;;;;;;4.28;1.90;;;;;;;;;;5001687;28;20094;-78
2021/05/05 01:08:15;;;;;;;3.72;1.65;;;;;;;;;;5017926;28;20124;-78
2021/05/05 01:10:41;;;;;;;3.45;1.60;;;;;;;;;;5018884;28;20107;-78
2021/05/05 01:13:07;;;;;;;4.32;1.73;;;;;;;;;;5034083;28;20033;-78
2021/05/05 01:15:32;;;;;;;4.32;2.03;;;;;;;;;;5034440;28;20068;-80
2021/05/05 01:17:58;;;;;;;4.47;1.25;;;;;;;;;;5034749;28;20039;-79
2021/05/05 01:20:27;;;;;;;3.72;1.40;;;;;;;;;;5033774;28;20037;-81
2021/05/05 01:22:52;;;;;;;3.63;1.73;;;;;;;;;;5019261;28;20130;-80
2021/05/05 01:25:18;;;;;;;2.63;1.13;;;;;;;;;;5037342;28;20037;-80
2021/05/05 01:27:44;;;;;;;5.13;1.52;;;;;;;;;;5037340;28;20052;-81
2021/05/05 01:30:11;;;;;;;3.95;2.08;;;;;;;;;;5011381;28;20048;-80
2021/05/05 01:32:36;;;;;;;5.15;1.60;;;;;;;;;;5017453;28;20036;-81
2021/05/05 01:35:03;;;;;;;3.30;1.55;;;;;;;;;;5034024;28;20041;-80
2021/05/05 01:37:29;;;;;;;5.30;1.48;;;;;;;;;;5033807;28;20487;-81
2021/05/05 01:39:54;;;;;;;3.33;1.63;;;;;;;;;;5017498;28;20072;-80
2021/05/05 01:42:20;;;;;;;5.82;1.63;;;;;;;;;;5000615;28;20469;-81
2021/05/05 01:44:46;;;;;;;3.78;1.63;;;;;;;;;;5001307;28;20399;-80
2021/05/05 01:47:12;;;;;;;6.25;1.75;;;;;;;;;;5031341;28;20036;-80
2021/05/05 01:49:47;;;;;;;4.07;1.55;;;;;;;;;;5017478;28;20122;-80
2021/05/05 01:52:16;;;;;;;4.43;1.35;;;;;;;;;;5036984;28;20119;-80
2021/05/05 01:54:41;;;;;;;3.20;1.60;;;;;;;;;;5020905;28;20045;-80
2021/05/05 01:57:28;;;;;;;3.80;1.55;;;;;;;;;;5033681;28;20052;-80
2021/05/05 01:59:53;;;;;;;5.22;2.33;;;;;;;;;;5050483;28;20039;-80
2021/05/05 02:02:19;;;;;;;6.00;1.42;;;;;;;;;;5017366;28;20119;-80
2021/05/05 02:04:45;;;;;;;2.80;1.20;;;;;;;;;;5001143;28;20625;-80
2021/05/05 02:07:10;;;;;;;4.20;1.52;;;;;;;;;;5016975;28;20029;-80
2021/05/05 02:09:36;;;;;;;4.95;1.60;;;;;;;;;;5001039;28;20040;-80
2021/05/05 02:12:01;;;;;;;5.20;1.52;;;;;;;;;;5017568;28;20090;-80
2021/05/05 02:14:27;;;;;;;4.60;1.45;;;;;;;;;;5017460;28;20483;-79
2021/05/05 02:16:58;;;;;;;6.70;1.92;;;;;;;;;;5017274;28;20036;-79
2021/05/05 02:19:24;;;;;;;5.83;1.60;;;;;;;;;;5000729;28;20037;-80
2021/05/05 02:21:49;;;;;;;3.65;1.52;;;;;;;;;;5009816;28;20294;-79
2021/05/05 02:24:15;;;;;;;3.97;1.33;;;;;;;;;;5037206;28;20037;-80
2021/05/05 02:26:40;;;;;;;6.22;1.75;;;;;;;;;;5036476;28;20425;-79
2021/05/05 02:29:06;;;;;;;5.80;2.17;;;;;;;;;;5019687;28;20037;-79
2021/05/05 02:31:31;;;;;;;5.70;1.58;;;;;;;;;;5020897;28;20028;-79
2021/05/05 02:33:57;;;;;;;4.25;1.60;;;;;;;;;;5022138;28;20123;-80
2021/05/05 02:36:22;;;;;;;5.05;1.60;;;;;;;;;;5036902;28;20069;-80
2021/05/05 02:38:48;;;;;;;4.30;1.83;;;;;;;;;;5011007;28;20400;-80
2021/05/05 02:41:13;;;;;;;4.82;1.40;;;;;;;;;;5004135;28;20414;-79
2021/05/05 02:43:39;;;;;;;4.65;1.30;;;;;;;;;;5034619;28;20458;-80
2021/05/05 02:46:05;;;;;;;6.18;1.40;;;;;;;;;;5021134;28;20025;-79
2021/05/05 02:48:30;;;;;;;4.38;1.70;;;;;;;;;;5020841;28;20039;-80
2021/05/05 02:50:56;;;;;;;5.70;2.47;;;;;;;;;;5023459;28;20041;-80
2021/05/05 02:53:21;;;;;;;5.13;1.60;;;;;;;;;;5020633;28;20128;-79
2021/05/05 02:55:46;;;;;;;5.90;1.73;;;;;;;;;;5020613;28;20487;-79
2021/05/05 02:58:12;;;;;;;4.75;1.30;;;;;;;;;;5020956;28;20115;-79
2021/05/05 03:00:38;;;;;;;4.20;1.33;;;;;;;;;;5020432;28;20530;-79
2021/05/05 03:03:03;;;;;;;4.20;1.70;;;;;;;;;;5004052;28;20094;-80
2021/05/05 03:05:28;;;;;;;3.75;1.45;;;;;;;;;;5020184;28;20116;-79
2021/05/05 03:07:54;;;;;;;4.53;1.58;;;;;;;;;;5036937;28;20063;-79
2021/05/05 03:10:19;;;;;;;6.40;1.42;;;;;;;;;;5036807;28;20037;-79
2021/05/05 03:12:45;;;;;;;5.15;1.80;;;;;;;;;;5036124;28;20086;-79
2021/05/05 03:15:11;;;;;;;3.55;1.15;;;;;;;;;;5053764;28;20040;-79
2021/05/05 03:17:36;;;;;;;4.03;1.50;;;;;;;;;;5036206;28;20549;-79
2021/05/05 03:20:05;;;;;;;4.72;1.73;;;;;;;;;;5039516;28;20031;-78
2021/05/05 03:22:30;;;;;;;4.15;1.90;;;;;;;;;;5039919;28;20086;-80
2021/05/05 03:24:56;;;;;;;7.07;2.15;;;;;;;;;;5023264;28;20444;-79
2021/05/05 03:27:22;;;;;;;3.58;1.27;;;;;;;;;;5056154;28;20418;-79
2021/05/05 03:29:49;;;;;;;4.18;2.63;;;;;;;;;;5023347;28;20024;-79
2021/05/05 03:32:14;;;;;;;4.43;1.50;;;;;;;;;;5037612;28;20139;-79
2021/05/05 03:34:40;;;;;;;3.10;1.30;;;;;;;;;;5036125;28;20040;-79
2021/05/05 03:37:05;;;;;;;5.60;1.40;;;;;;;;;;5020043;28;20055;-79
2021/05/05 03:39:30;;;;;;;4.53;1.52;;;;;;;;;;5002240;28;20039;-79
2021/05/05 03:41:56;;;;;;;4.55;1.35;;;;;;;;;;5018943;28;20059;-79
2021/05/05 03:44:22;;;;;;;5.30;1.30;;;;;;;;;;5036109;28;20519;-79
2021/05/05 03:46:47;;;;;;;9.00;2.42;;;;;;;;;;5052630;28;20384;-80
2021/05/05 03:49:13;;;;;;;3.78;1.17;;;;;;;;;;5019556;28;20430;-79
2021/05/05 03:51:38;;;;;;;5.38;1.50;;;;;;;;;;5048436;28;20040;-79
2021/05/05 03:54:04;;;;;;;4.00;1.33;;;;;;;;;;5035859;28;20044;-79
2021/05/05 03:56:29;;;;;;;3.33;1.20;;;;;;;;;;5035546;28;20056;-79
2021/05/05 03:58:55;;;;;;;4.78;1.60;;;;;;;;;;5035684;28;20040;-79
2021/05/05 04:01:20;;;;;;;5.05;1.67;;;;;;;;;;5018839;28;20059;-79
2021/05/05 04:03:46;;;;;;;3.65;1.67;;;;;;;;;;5035594;28;20056;-79
2021/05/05 04:06:11;;;;;;;4.93;1.52;;;;;;;;;;5020409;28;20119;-79
2021/05/05 04:08:37;;;;;;;5.13;2.00;;;;;;;;;;5018947;28;20083;-79
2021/05/05 04:11:03;;;;;;;4.28;1.20;;;;;;;;;;5035333;28;20040;-79
2021/05/05 04:13:28;;;;;;;5.18;1.38;;;;;;;;;;5024897;28;20044;-79
2021/05/05 04:15:54;;;;;;;4.10;1.58;;;;;;;;;;5038928;28;20036;-79
2021/05/05 04:18:19;;;;;;;5.95;1.67;;;;;;;;;;5018299;28;20072;-79
2021/05/05 04:20:45;;;;;;;4.47;1.45;;;;;;;;;;5019507;28;20057;-79
2021/05/05 04:23:10;;;;;;;4.93;1.38;;;;;;;;;;5035862;28;20045;-79
2021/05/05 04:25:36;;;;;;;4.00;2.13;;;;;;;;;;5034815;28;20060;-79
2021/05/05 04:28:01;;;;;;;4.10;1.13;;;;;;;;;;5035024;28;20384;-79
2021/05/05 04:30:26;;;;;;;4.32;1.35;;;;;;;;;;5018706;28;20112;-79
2021/05/05 04:32:52;;;;;;;5.85;2.05;;;;;;;;;;5035089;28;20414;-79
2021/05/05 04:35:19;;;;;;;4.47;1.35;;;;;;;;;;5002371;28;20461;-80
2021/05/05 04:37:44;;;;;;;6.32;1.25;;;;;;;;;;5035513;28;20045;-79
2021/05/05 04:40:10;;;;;;;4.75;1.75;;;;;;;;;;5002091;28;20499;-78
2021/05/05 04:42:36;;;;;;;4.32;1.25;;;;;;;;;;5034416;28;20060;-79
2021/05/05 04:45:03;;;;;;;3.38;1.10;;;;;;;;;;5025698;28;20039;-79
2021/05/05 04:47:30;;;;;;;5.85;1.77;;;;;;;;;;5038015;28;20044;-79
2021/05/05 04:49:56;;;;;;;4.30;1.38;;;;;;;;;;5038212;28;20032;-79
2021/05/05 04:52:21;;;;;;;3.45;1.17;;;;;;;;;;5034309;28;20051;-79
2021/05/05 04:54:47;;;;;;;4.90;1.20;;;;;;;;;;5034709;28;20033;-79
2021/05/05 04:57:14;;;;;;;4.00;1.17;;;;;;;;;;5034664;28;20162;-79
2021/05/05 04:59:40;;;;;;;5.50;1.30;;;;;;;;;;5034405;28;20059;-78
2021/05/05 05:02:05;;;;;;;6.28;1.40;;;;;;;;;;5017257;28;20393;-79
2021/05/05 05:04:30;;;;;;;3.88;1.35;;;;;;;;;;5015675;28;20048;-77
2021/05/05 05:06:56;;;;;;;4.43;1.50;;;;;;;;;;5035512;28;20102;-81
2021/05/05 05:09:21;;;;;;;5.32;1.90;;;;;;;;;;5037086;28;20037;-81
2021/05/05 05:11:47;;;;;;;4.68;1.35;;;;;;;;;;5036843;28;20036;-82
2021/05/05 05:14:13;;;;;;;8.93;2.63;;;;;;;;;;5054858;28;20386;-78
2021/05/05 05:16:38;;;;;;;7.78;1.80;;;;;;;;;;5054186;28;20793;-81
2021/05/05 05:19:04;;;;;;;5.70;1.55;;;;;;;;;;5053977;28;20499;-80
2021/05/05 05:21:29;;;;;;;6.55;1.73;;;;;;;;;;5054164;28;20040;-80
2021/05/05 05:23:55;;;;;;;8.57;2.05;;;;;;;;;;5053944;28;20029;-82
2021/05/05 05:26:20;;;;;;;9.32;1.90;;;;;;;;;;5034569;28;20040;-82
2021/05/05 05:28:45;;;;;;;7.82;2.15;;;;;;;;;;5007686;28;20043;-83
2021/05/05 05:31:11;;;;;;;7.38;1.75;;;;;;;;;;5035493;28;20059;-83
2021/05/05 05:33:37;;;;;;;7.05;2.28;;;;;;;;;;5034210;28;20116;-83
2021/05/05 05:36:03;;;;;;;12.10;1.83;;;;;;;;;;5017429;28;20049;-82
2021/05/05 05:38:28;;;;;;;7.50;1.85;;;;;;;;;;5009935;28;20033;-82
2021/05/05 05:40:53;;;;;;;7.38;1.67;;;;;;;;;;5042171;28;20045;-82
2021/05/05 05:43:19;;;;;;;5.97;1.80;;;;;;;;;;5041874;28;20361;-83
2021/05/05 05:45:44;;;;;;;5.80;1.58;;;;;;;;;;5052668;28;20115;-82
2021/05/05 05:48:11;;;;;;;5.50;2.13;;;;;;;;;;5042377;28;20123;-82
2021/05/05 05:50:36;;;;;;;4.57;1.50;;;;;;;;;;5034098;28;20551;-82
2021/05/05 05:53:02;;;;;;;6.32;1.55;;;;;;;;;;5036409;28;20103;-82
2021/05/05 05:55:29;;;;;;;7.30;2.40;;;;;;;;;;5032869;28;20479;-82
2021/05/05 05:57:56;;;;;;;10.50;2.47;;;;;;;;;;5017924;28;20044;-82
2021/05/05 06:00:22;;;;;;;10.20;1.90;;;;;;;;;;5007276;28;20509;-82
2021/05/05 06:02:47;;;;;;;5.55;1.63;;;;;;;;;;5032957;28;20039;-81
2021/05/05 06:05:12;;;;;;;7.55;1.40;;;;;;;;;;5034863;28;20037;-83
2021/05/05 06:07:38;;;;;;;6.20;1.50;;;;;;;;;;5027666;28;20469;-83
2021/05/05 06:10:06;;;;;;;7.93;1.77;;;;;;;;;;5032880;28;20484;-84
2021/05/05 06:12:32;;;;;;;6.78;1.80;;;;;;;;;;5030596;28;20094;-84
2021/05/05 06:14:58;;;;;;;6.57;1.48;;;;;;;;;;5031852;28;20045;-84
2021/05/05 06:17:24;;;;;;;8.27;1.73;;;;;;;;;;5033907;28;20029;-82
2021/05/05 06:19:49;;;;;;;11.38;1.83;;;;;;;;;;5016458;28;20055;-82
2021/05/05 06:22:14;;;;;;;8.90;2.17;;;;;;;;;;5034657;28;20411;-82
2021/05/05 06:24:40;;;;;;;10.18;2.00;;;;;;;;;;5032553;28;20419;-83
2021/05/05 06:27:06;;;;;;;10.88;1.60;;;;;;;;;;5032042;28;20111;-83
2021/05/05 06:29:32;;;;;;;10.25;2.03;;;;;;;;;;5026068;28;20063;-82
2021/05/05 06:31:58;;;;;;;8.15;1.80;;;;;;;;;;5048498;28;20037;-82
2021/05/05 06:34:23;;;;;;;5.88;1.58;;;;;;;;;;5034151;28;20048;-82
2021/05/05 06:36:48;;;;;;;6.55;1.65;;;;;;;;;;5017277;28;20048;-82
2021/05/05 06:39:14;;;;;;;3.97;1.27;;;;;;;;;;5032905;28;20076;-83
2021/05/05 06:41:40;;;;;;;8.90;1.73;;;;;;;;;;5017125;28;20119;-83
2021/05/05 06:44:06;;;;;;;7.65;1.58;;;;;;;;;;5049303;28;20045;-83
2021/05/05 06:46:32;;;;;;;7.70;1.67;;;;;;;;;;5003849;28;20032;-81
2021/05/05 06:48:57;;;;;;;7.75;1.77;;;;;;;;;;5026367;28;20115;-82
2021/05/05 06:51:24;;;;;;;4.53;1.40;;;;;;;;;;5016765;28;20039;-81
2021/05/05 06:53:50;;;;;;;7.18;2.13;;;;;;;;;;5016813;28;20040;-82
2021/05/05 06:56:15;;;;;;;4.72;1.58;;;;;;;;;;5032518;28;20089;-82
2021/05/05 06:58:41;;;;;;;9.93;3.58;;;;;;;;;;5023407;28;20553;-83
2021/05/05 07:01:06;;;;;;;8.07;2.45;;;;;;;;;;5033687;28;20052;-82
2021/05/05 07:03:32;;;;;;;8.93;1.73;;;;;;;;;;5013210;28;20458;-81
2021/05/05 07:05:59;;;;;;;5.78;2.05;;;;;;;;;;5035174;28;20115;-82
2021/05/05 07:08:25;;;;;;;6.63;2.10;;;;;;;;;;5036385;28;20033;-82
2021/05/05 07:10:51;;;;;;;8.07;2.03;;;;;;;;;;5036657;28;20040;-82
2021/05/05 07:13:16;;;;;;;3.72;1.50;;;;;;;;;;5035913;28;20047;-83
2021/05/05 07:15:42;;;;;;;4.78;1.83;;;;;;;;;;5023369;28;20037;-82
2021/05/05 07:18:08;;;;;;;4.50;1.50;;;;;;;;;;5039947;28;20045;-81
2021/05/05 07:20:34;;;;;;;6.53;2.13;;;;;;;;;;5056879;28;20406;-82
2021/05/05 07:22:59;;;;;;;5.15;2.35;;;;;;;;;;5036462;28;20041;-82
2021/05/05 07:25:25;;;;;;;4.50;1.73;;;;;;;;;;5002658;28;20037;-81
2021/05/05 07:27:50;;;;;;;6.13;1.40;;;;;;;;;;5035996;28;20049;-82
2021/05/05 07:30:17;;;;;;;6.05;1.60;;;;;;;;;;5052808;28;20033;-82
2021/05/05 07:32:42;;;;;;;6.20;1.30;;;;;;;;;;5036031;28;20049;-82
2021/05/05 07:35:09;;;;;;;4.35;1.23;;;;;;;;;;5051280;28;20052;-82
2021/05/05 07:48:27;;;;;;;3.10;1.10;;;;;;;;;;5039676;28;20082;-81
2021/05/05 07:50:53;;;;;;;3.25;1.08;;;;;;;;;;5053539;28;20033;-81
2021/05/05 07:53:18;;;;;;;3.05;1.20;;;;;;;;;;5035732;28;20068;-80
2021/05/05 07:55:44;;;;;;;1.92;0.90;;;;;;;;;;5019952;28;20044;-81
2021/05/05 07:58:11;;;;;;;7.28;1.35;;;;;;;;;;5034996;28;20052;-81
2021/05/05 08:00:36;;;;;;;4.47;0.70;;;;;;;;;;5030577;28;20108;-81
2021/05/05 08:03:02;;;;;;;4.68;1.05;;;;;;;;;;5018809;28;20453;-82
2021/05/05 08:05:29;;;;;;;3.15;0.75;;;;;;;;;;5044788;28;20048;-80
2021/05/05 08:07:54;;;;;;;5.20;1.08;;;;;;;;;;5051820;28;20032;-80
2021/05/05 08:10:20;;;;;;;2.38;0.73;;;;;;;;;;5051930;28;20075;-80
2021/05/05 08:12:45;;;;;;;3.88;1.60;;;;;;;;;;5051904;28;20029;-79
2021/05/05 08:15:11;;;;;;;1.73;0.80;;;;;;;;;;5035441;28;20048;-79
2021/05/05 08:17:37;;;;;;;3.30;0.88;;;;;;;;;;5047823;28;20036;-79
2021/05/05 08:20:03;;;;;;;4.85;1.10;;;;;;;;;;5022033;28;20035;-80
2021/05/05 08:22:29;;;;;;;4.03;0.82;;;;;;;;;;5041877;28;20025;-80
2021/05/05 08:24:54;;;;;;;2.15;0.82;;;;;;;;;;5034753;28;20043;-80
2021/05/05 08:27:20;;;;;;;2.85;0.70;;;;;;;;;;5034404;28;20037;-81
2021/05/05 08:29:45;;;;;;;2.15;0.80;;;;;;;;;;5018417;28;20033;-83
2021/05/05 08:32:11;;;;;;;2.58;0.98;;;;;;;;;;5034966;28;20045;-84
2021/05/05 08:34:36;;;;;;;4.32;0.90;;;;;;;;;;5018870;28;20048;-84
2021/05/05 08:37:01;;;;;;;2.05;0.80;;;;;;;;;;5002371;28;20032;-83
2021/05/05 08:39:27;;;;;;;3.85;1.13;;;;;;;;;;5018979;28;20039;-84
2021/05/05 08:41:52;;;;;;;3.58;0.95;;;;;;;;;;5018007;28;20552;-84
2021/05/05 08:44:18;;;;;;;5.32;0.88;;;;;;;;;;5018439;28;20502;-84
2021/05/05 08:46:45;;;;;;;2.28;0.60;;;;;;;;;;5035309;28;20040;-84
2021/05/05 08:49:10;;;;;;;3.53;0.70;;;;;;;;;;5020000;28;20132;-84
2021/05/05 08:51:36;;;;;;;3.75;0.98;;;;;;;;;;5027184;28;20112;-83
2021/05/05 08:54:03;;;;;;;3.03;1.10;;;;;;;;;;5038373;28;20033;-84
2021/05/05 08:56:35;;;;;;;5.22;1.35;;;;;;;;;;5037912;28;20036;-84
2021/05/05 08:59:01;;;;;;;2.72;0.70;;;;;;;;;;5055358;28;20064;-84
2021/05/05 09:01:27;;;;;;;4.55;0.90;;;;;;;;;;5038134;28;20029;-83
2021/05/05 09:03:52;;;;;;;8.52;4.38;;;;;;;;;;5037795;28;20081;-83
2021/05/05 09:06:17;;;;;;;9.85;5.13;;;;;;;;;;5054030;28;20511;-82
2021/05/05 09:08:49;;;;;;;10.75;6.43;;;;;;;;;;5021241;28;20108;-83
2021/05/05 09:11:15;;;;;;;11.50;7.40;;;;;;;;;;5054143;28;20090;-81
2021/05/05 09:13:51;;;;;;;25.90;20.63;;;;;;;;;;5037538;28;20044;-81
2021/05/05 09:16:28;;;;;;;20.27;15.35;;;;;;;;;;5054260;28;20032;-81
2021/05/05 09:19:00;;;;;;;23.58;18.10;;;;;;;;;;5054062;28;20431;-81
2021/05/05 09:21:29;;;;;;;28.90;20.70;;;;;;;;;;5050970;28;20129;-81
2021/05/05 09:24:14;;;;;;;25.40;18.40;;;;;;;;;;5017751;28;20037;-81
2021/05/05 09:26:40;;;;;;;19.98;17.05;;;;;;;;;;5017362;28;20041;-81
2021/05/05 09:29:05;;;;;;;21.23;16.40;;;;;;;;;;5001352;28;20021;-81
2021/05/05 09:31:35;;;;;;;20.88;16.00;;;;;;;;;;5017733;28;20052;-80
2021/05/05 09:34:00;;;;;;;20.63;14.80;;;;;;;;;;5050580;28;20111;-80
2021/05/05 09:36:26;;;;;;;17.42;13.50;;;;;;;;;;5033923;28;20091;-80
2021/05/05 09:38:54;;;;;;;17.13;13.60;;;;;;;;;;5034543;28;20033;-80
2021/05/05 09:41:24;;;;;;;18.95;12.07;;;;;;;;;;5017215;28;20036;-79
2021/05/05 09:43:50;;;;;;;17.15;11.18;;;;;;;;;;5050082;28;20423;-80
2021/05/05 09:46:43;;;;;;;20.40;11.95;;;;;;;;;;5033633;28;20400;-82
2021/05/05 09:49:17;;;;;;;15.95;10.10;;;;;;;;;;5050386;28;20063;-82
2021/05/05 09:51:47;;;;;;;14.63;10.25;;;;;;;;;;5027375;28;20114;-83
2021/05/05 09:54:27;;;;;;;15.15;9.25;;;;;;;;;;5063055;28;20082;-79
2021/05/05 09:56:53;;;;;;;14.82;8.85;;;;;;;;;;5035451;28;20071;-81
2021/05/05 09:59:19;;;;;;;12.70;8.23;;;;;;;;;;5051042;28;20406;-81
2021/05/05 10:02:00;;;;;;;13.55;7.43;;;;;;;;;;5031885;28;20090;-80
2021/05/05 10:04:26;;;;;;;11.25;6.55;;;;;;;;;;5048025;28;20040;-81
2021/05/05 10:07:00;;;;;;;11.75;5.90;;;;;;;;;;5015422;28;20045;-81
2021/05/05 10:09:25;;;;;;;7.65;5.13;;;;;;;;;;5015233;28;20515;-80
2021/05/05 10:11:51;;;;;;;7.78;5.38;;;;;;;;;;5015313;28;20056;-80
2021/05/05 10:14:18;;;;;;;6.47;3.47;;;;;;;;;;5017120;28;20490;-80
2021/05/05 10:16:45;;;;;;;6.85;4.30;;;;;;;;;;5017082;28;20060;-80
2021/05/05 10:19:14;;;;;;;7.05;3.78;;;;;;;;;;5017233;28;20037;-80
2021/05/05 10:21:43;;;;;;;6.63;3.40;;;;;;;;;;5041017;28;20039;-80
2021/05/05 10:24:08;;;;;;;5.53;3.13;;;;;;;;;;5036676;28;20082;-81
2021/05/05 10:26:34;;;;;;;6.50;2.80;;;;;;;;;;5019606;28;20052;-80
2021/05/05 10:28:59;;;;;;;6.43;2.75;;;;;;;;;;5053228;28;20446;-79
2021/05/05 10:31:27;;;;;;;5.97;2.53;;;;;;;;;;5036309;28;20040;-80
2021/05/05 10:33:56;;;;;;;4.13;2.28;;;;;;;;;;5036316;28;20127;-80
2021/05/05 10:36:34;;;;;;;4.22;1.92;;;;;;;;;;5020681;28;20047;-80
2021/05/05 10:39:00;;;;;;;3.67;2.00;;;;;;;;;;5032649;28;20037;-82
2021/05/05 10:41:25;;;;;;;5.85;2.17;;;;;;;;;;5036198;28;20045;-81
2021/05/05 10:43:56;;;;;;;5.72;2.25;;;;;;;;;;5030984;28;20047;-81
2021/05/05 10:46:31;;;;;;;4.57;2.38;;;;;;;;;;5001169;28;20041;-82
2021/05/05 10:49:15;;;;;;;5.85;2.35;;;;;;;;;;5017954;28;20033;-82
2021/05/05 10:51:44;;;;;;;3.92;1.35;;;;;;;;;;5006126;28;20552;-83
2021/05/05 10:54:09;;;;;;;5.45;2.78;;;;;;;;;;5053811;28;20963;-83
2021/05/05 10:56:35;;;;;;;3.85;1.77;;;;;;;;;;5023749;28;20037;-83
2021/05/05 10:59:01;;;;;;;3.85;1.60;;;;;;;;;;5020541;28;20025;-83
2021/05/05 11:01:39;;;;;;;2.35;1.33;;;;;;;;;;5004132;28;20029;-82
2021/05/05 11:04:08;;;;;;;2.97;1.40;;;;;;;;;;5052972;28;20032;-82
2021/05/05 11:06:34;;;;;;;3.85;1.25;;;;;;;;;;5020365;28;20060;-81
2021/05/05 11:09:12;;;;;;;3.58;1.40;;;;;;;;;;5053076;28;20407;-81
2021/05/05 11:12:04;;;;;;;4.47;1.70;;;;;;;;;;5052716;28;20041;-80
2021/05/05 11:14:32;;;;;;;6.95;1.52;;;;;;;;;;5033876;28;20049;-80
2021/05/05 11:17:02;;;;;;;3.92;1.60;;;;;;;;;;5053057;28;20078;-80
2021/05/05 11:22:33;;;;;;;5.45;1.50;;;;;;;;;;5065604;28;20028;-82
2021/05/05 11:24:58;;;;;;;6.15;1.45;;;;;;;;;;5033902;28;20040;-82
2021/05/05 11:27:46;;;;;;;8.90;1.73;;;;;;;;;;5039705;28;20505;-83
2021/05/05 11:30:42;;;;;;;8.13;1.88;;;;;;;;;;5056448;28;20029;-82
2021/05/05 11:33:08;;;;;;;7.18;1.63;;;;;;;;;;5052599;28;20120;-82
2021/05/05 11:35:34;;;;;;;5.95;1.38;;;;;;;;;;5052439;28;20033;-82
2021/05/05 11:38:07;;;;;;;6.93;2.03;;;;;;;;;;5059855;28;20032;-82
2021/05/05 11:40:33;;;;;;;6.78;2.05;;;;;;;;;;5056269;28;20402;-81
2021/05/05 11:42:58;;;;;;;8.70;2.28;;;;;;;;;;5022456;28;20123;-82
2021/05/05 11:45:23;;;;;;;6.45;1.73;;;;;;;;;;5022169;28;20093;-81
2021/05/05 11:47:49;;;;;;;7.40;1.75;;;;;;;;;;5039244;28;20521;-81
2021/05/05 11:50:22;;;;;;;12.32;3.60;;;;;;;;;;5038366;28;20037;-81
2021/05/05 11:52:51;;;;;;;7.13;1.50;;;;;;;;;;5036578;28;20033;-81
2021/05/05 11:55:27;;;;;;;3.97;1.25;;;;;;;;;;5035724;28;20037;-80
2021/05/05 11:57:53;;;;;;;4.88;1.50;;;;;;;;;;5019758;28;20128;-81
2021/05/05 12:00:25;;;;;;;5.40;1.75;;;;;;;;;;5030131;28;20541;-80
2021/05/05 12:02:52;;;;;;;6.78;1.33;;;;;;;;;;5036028;28;20457;-80
2021/05/05 12:05:36;;;;;;;8.98;1.52;;;;;;;;;;5033772;28;20044;-81
2021/05/05 12:08:08;;;;;;;7.03;1.90;;;;;;;;;;5019044;28;20037;-80
2021/05/05 12:10:44;;;;;;;10.77;1.43;;;;;;;;;;5035097;28;20402;-81
2021/05/05 12:13:13;;;;;;;6.97;1.15;;;;;;;;;;5016873;28;20029;-81
2021/05/05 12:15:45;;;;;;;7.35;1.65;;;;;;;;;;5019190;28;20037;-81
2021/05/05 12:18:25;;;;;;;5.65;2.00;;;;;;;;;;5063822;28;20404;-81
2021/05/05 12:20:51;;;;;;;8.88;1.42;;;;;;;;;;5039330;28;20056;-81
2021/05/05 12:23:16;;;;;;;9.07;1.88;;;;;;;;;;5018093;28;20132;-80
2021/05/05 12:25:42;;;;;;;7.72;1.73;;;;;;;;;;5035075;28;20055;-80
2021/05/05 12:28:09;;;;;;;4.22;1.35;;;;;;;;;;5032512;28;20561;-81
2021/05/05 12:30:52;;;;;;;7.82;1.52;;;;;;;;;;5054858;28;20505;-80
2021/05/05 12:33:18;;;;;;;;;;;;;;;;;;5056793;28;20036;-80
2021/05/05 12:35:45;;;;;;;4.75;1.40;;;;;;;;;;5038177;28;19913;-81
2021/05/05 12:38:16;;;;;;;8.90;1.67;;;;;;;;;;5038572;28;20573;-81
2021/05/05 12:40:42;;;;;;;5.18;1.38;;;;;;;;;;5036388;28;20131;-80
2021/05/05 12:43:15;;;;;;;4.03;1.35;;;;;;;;;;5035607;28;20143;-80
2021/05/05 12:45:40;;;;;;;4.88;1.60;;;;;;;;;;5036751;28;20561;-80
2021/05/05 12:48:06;;;;;;;9.80;1.30;;;;;;;;;;5021625;28;20056;-80
2021/05/05 12:50:43;;;;;;;4.20;1.50;;;;;;;;;;5035090;28;20025;-81
2021/05/05 12:53:09;;;;;;;5.10;1.00;;;;;;;;;;5018204;28;20522;-80
2021/05/05 12:55:36;;;;;;;6.35;2.45;;;;;;;;;;5002192;28;20163;-80
2021/05/05 12:58:06;;;;;;;3.90;1.00;;;;;;;;;;5018655;28;20040;-81
2021/05/05 13:00:32;;;;;;;3.40;0.60;;;;;;;;;;5034702;28;20037;-80
2021/05/05 13:03:30;;;;;;;4.28;1.10;;;;;;;;;;5041289;28;20094;-80
2021/05/05 13:05:56;;;;;;;3.58;0.80;;;;;;;;;;5038700;28;20063;-80
2021/05/05 13:08:46;;;;;;;4.53;1.17;;;;;;;;;;5054763;28;20063;-80
2021/05/05 13:11:23;;;;;;;5.85;1.40;;;;;;;;;;5039030;28;20501;-80
2021/05/05 13:13:53;;;;;;;2.13;0.90;;;;;;;;;;5020962;28;20036;-80
2021/05/05 13:16:37;;;;;;;4.70;0.90;;;;;;;;;;5021859;28;20035;-80
2021/05/05 13:32:50;;;;;;;2.47;0.70;;;;;;;;;;5050947;28;20388;-79
2021/05/05 13:35:45;;;;;;;2.80;0.70;;;;;;;;;;5035409;28;20414;-78
2021/05/05 13:38:12;;;;;;;1.65;0.70;;;;;;;;;;5034546;28;20386;-79
2021/05/05 13:40:45;;;;;;;3.55;0.75;;;;;;;;;;5033199;28;20037;-79
2021/05/05 13:45:55;;;;;;;3.03;0.77;;;;;;;;;;5035165;28;20495;-80
2021/05/05 13:48:26;;;;;;;2.65;0.70;;;;;;;;;;5018081;28;20447;-79
2021/05/05 13:50:53;;;;;;;4.97;0.90;;;;;;;;;;5040522;28;20032;-81
2021/05/05 13:53:18;;;;;;;2.95;0.80;;;;;;;;;;5036997;28;20426;-80
2021/05/05 13:55:44;;;;;;;2.17;0.70;;;;;;;;;;5036762;28;20031;-81
2021/05/05 13:58:09;;;;;;;2.88;0.70;;;;;;;;;;5053515;28;20439;-80
2021/05/05 14:00:35;;;;;;;2.08;0.70;;;;;;;;;;5050095;28;20048;-80
2021/05/05 14:03:00;;;;;;;4.13;0.85;;;;;;;;;;5049986;28;20059;-80
2021/05/05 14:05:26;;;;;;;2.33;0.60;;;;;;;;;;5050045;28;20045;-80
2021/05/05 14:07:51;;;;;;;2.63;1.13;;;;;;;;;;5016671;28;20033;-81
2021/05/05 14:10:17;;;;;;;1.52;0.47;;;;;;;;;;5066121;28;20094;-80
2021/05/05 14:12:43;;;;;;;2.80;0.65;;;;;;;;;;5059322;28;20032;-80
2021/05/05 14:15:09;;;;;;;2.25;0.55;;;;;;;;;;5053304;28;20046;-80
2021/05/05 14:17:38;;;;;;;2.67;0.60;;;;;;;;;;5053217;28;20487;-80
2021/05/05 14:20:06;;;;;;;4.38;0.70;;;;;;;;;;5037815;28;20040;-80
2021/05/05 14:22:31;;;;;;;3.00;0.90;;;;;;;;;;5049741;28;20055;-77
2021/05/05 14:24:57;;;;;;;2.33;0.60;;;;;;;;;;5035716;28;20045;-77
2021/05/05 14:27:22;;;;;;;2.92;0.82;;;;;;;;;;5037236;28;20045;-78
2021/05/05 14:29:48;;;;;;;2.55;0.63;;;;;;;;;;5054284;28;20116;-78
2021/05/05 14:32:14;;;;;;;2.65;0.52;;;;;;;;;;5037228;28;20059;-78
2021/05/05 14:34:39;;;;;;;3.08;0.70;;;;;;;;;;5037175;28;20037;-78
2021/05/05 14:37:05;;;;;;;6.45;1.38;;;;;;;;;;5053937;28;20048;-77
2021/05/05 14:39:30;;;;;;;2.80;0.60;;;;;;;;;;5036818;28;20040;-77
2021/05/05 14:41:56;;;;;;;2.35;0.52;;;;;;;;;;5036481;28;20041;-77
2021/05/05 14:44:31;;;;;;;4.40;0.70;;;;;;;;;;5037777;28;20107;-77
2021/05/05 14:49:44;;;;;;;2.63;0.80;;;;;;;;;;5039678;28;20041;-77
2021/05/05 14:52:10;;;;;;;2.20;0.80;;;;;;;;;;5054074;28;20067;-77
2021/05/05 14:54:36;;;;;;;1.25;0.50;;;;;;;;;;5023708;28;20033;-77
2021/05/05 14:57:01;;;;;;;2.03;0.50;;;;;;;;;;5056474;28;20110;-77
2021/05/05 14:59:27;;;;;;;2.72;0.63;;;;;;;;;;5039979;28;20548;-77
2021/05/05 15:01:52;;;;;;;2.95;0.70;;;;;;;;;;5073191;28;20445;-78
2021/05/05 15:04:18;;;;;;;3.47;0.73;;;;;;;;;;5056538;28;20048;-77
2021/05/05 15:06:46;;;;;;;1.58;0.52;;;;;;;;;;5049286;28;20459;-77
2021/05/05 15:14:13;;;;;;;1.45;0.50;;;;;;;;;;5036657;28;20031;-77
2021/05/05 15:17:04;;;;;;;2.65;0.70;;;;;;;;;;5023134;28;20107;-78
2021/05/05 15:33:54;;;;;;;2.45;0.70;;;;;;;;;;5058374;28;20033;-78